Time;durP1;ratioP1;P1;durP2;ratioP2;P2;SDS_P1;SDS_P2;PMS_P1;PMS_P2;Temp;Humidity;BMP_temperature;BMP_pressure;BME280_temperature;BME280_humidity;BME280_pressure;Samples;Min_cycle;Max_cycle;Signal;HPM_P1;HPM_P2
2023/06/11 00:01:08;;;;;;;15.82;10.25;;;22.20;23.20;;;;;;5051596;28;20824;-71
2023/06/11 00:03:40;;;;;;;14.90;10.05;;;22.20;23.10;;;;;;5051954;28;20472;-72
2023/06/11 00:06:07;;;;;;;14.27;10.07;;;22.10;23.40;;;;;;5051710;28;20377;-71
2023/06/11 00:08:32;;;;;;;13.53;9.83;;;22.00;23.60;;;;;;5052020;28;20804;-72
2023/06/11 00:10:58;;;;;;;12.77;10.43;;;22.10;23.20;;;;;;5051486;28;20434;-71
2023/06/11 00:13:23;;;;;;;15.55;9.50;;;22.10;23.60;;;;;;5051860;28;20397;-70
2023/06/11 00:15:49;;;;;;;11.73;9.33;;;22.10;23.10;;;;;;5052110;28;20458;-71
2023/06/11 00:18:16;;;;;;;13.75;9.98;;;22.00;23.10;;;;;;5051594;28;20393;-72
2023/06/11 00:20:43;;;;;;;14.00;9.88;;;22.00;23.70;;;;;;5051778;28;20750;-72
2023/06/11 00:23:08;;;;;;;12.13;9.75;;;22.00;23.60;;;;;;5051464;28;20377;-71
2023/06/11 00:25:35;;;;;;;15.73;10.60;;;22.00;23.40;;;;;;5051735;28;20388;-71
2023/06/11 00:28:00;;;;;;;16.77;10.80;;;22.00;23.60;;;;;;5051318;28;20409;-72
2023/06/11 00:30:26;;;;;;;15.40;9.90;;;22.00;23.70;;;;;;5051185;28;20419;-71
2023/06/11 00:32:51;;;;;;;14.20;9.63;;;22.00;23.40;;;;;;5051189;28;20389;-70
2023/06/11 00:35:17;;;;;;;13.88;10.20;;;22.00;23.30;;;;;;5051430;28;20392;-71
2023/06/11 00:37:43;;;;;;;13.07;9.90;;;21.90;23.70;;;;;;5051102;28;20746;-71
2023/06/11 00:40:09;;;;;;;14.10;9.93;;;22.00;23.70;;;;;;5051198;28;20389;-70
2023/06/11 00:42:35;;;;;;;12.25;10.48;;;22.00;23.50;;;;;;5050971;28;20455;-72
2023/06/11 00:45:03;;;;;;;12.23;10.00;;;22.00;24.80;;;;;;5051829;28;20374;-71
2023/06/11 00:47:30;;;;;;;12.48;9.52;;;21.90;24.10;;;;;;5052700;28;20704;-72
2023/06/11 00:49:56;;;;;;;11.65;9.90;;;21.80;24.50;;;;;;5053375;28;21005;-71
2023/06/11 00:52:22;;;;;;;14.90;9.80;;;21.60;25.00;;;;;;5057434;28;20390;-73
2023/06/11 00:54:48;;;;;;;14.10;9.97;;;21.70;25.20;;;;;;5061891;28;20539;-72
2023/06/11 00:57:17;;;;;;;12.70;9.93;;;21.80;24.80;;;;;;5064786;28;20441;-71
2023/06/11 00:59:47;;;;;;;12.83;10.50;;;21.60;25.00;;;;;;5065348;28;20407;-72
2023/06/11 01:02:18;;;;;;;16.65;9.25;;;21.50;26.10;;;;;;5066194;28;20374;-71
2023/06/11 01:04:46;;;;;;;17.45;10.40;;;21.50;25.80;;;;;;5064689;28;20401;-72
2023/06/11 01:07:15;;;;;;;13.83;10.67;;;21.40;26.00;;;;;;5066353;28;20385;-72
2023/06/11 01:09:43;;;;;;;14.13;9.90;;;21.30;26.70;;;;;;5062018;28;20378;-72
2023/06/11 01:12:09;;;;;;;13.52;10.18;;;21.40;26.50;;;;;;5061302;28;20432;-72
2023/06/11 01:14:35;;;;;;;11.97;10.07;;;21.30;26.90;;;;;;5064419;28;20450;-71
2023/06/11 01:17:10;;;;;;;16.27;9.80;;;21.30;26.80;;;;;;5062507;28;20831;-71
2023/06/11 01:19:56;;;;;;;11.18;9.43;;;21.20;26.90;;;;;;5050710;28;20427;-72
2023/06/11 01:22:49;;;;;;;14.05;10.32;;;21.20;26.70;;;;;;5050114;28;20746;-71
2023/06/11 01:25:37;;;;;;;13.15;9.52;;;21.10;27.40;;;;;;5050466;28;20402;-72
2023/06/11 01:28:10;;;;;;;11.38;9.43;;;21.00;27.90;;;;;;5050332;28;20378;-73
2023/06/11 01:30:38;;;;;;;14.23;10.20;;;21.00;28.20;;;;;;5050295;28;20750;-72
2023/06/11 01:33:05;;;;;;;12.20;9.90;;;21.00;28.30;;;;;;5050198;28;20719;-71
2023/06/11 01:35:33;;;;;;;14.30;10.38;;;21.00;28.70;;;;;;5050341;28;20417;-71
2023/06/11 01:37:59;;;;;;;13.30;10.35;;;21.10;27.90;;;;;;5050392;28;20457;-72
2023/06/11 01:40:26;;;;;;;13.65;10.60;;;21.20;27.70;;;;;;5050087;28;20431;-71
2023/06/11 01:42:53;;;;;;;14.35;10.30;;;21.10;27.80;;;;;;5050157;28;20389;-71
2023/06/11 01:45:21;;;;;;;17.48;10.77;;;21.10;27.80;;;;;;5050583;28;20385;-72
2023/06/11 01:47:50;;;;;;;15.57;10.13;;;21.20;27.70;;;;;;5050242;28;20905;-72
2023/06/11 01:50:17;;;;;;;13.07;10.00;;;21.20;27.70;;;;;;5050388;28;20386;-72
2023/06/11 01:52:43;;;;;;;14.02;9.70;;;21.10;27.70;;;;;;5049965;28;20415;-72
2023/06/11 01:55:09;;;;;;;13.43;9.85;;;21.00;28.50;;;;;;5050226;28;20382;-72
2023/06/11 01:57:35;;;;;;;14.07;10.35;;;21.10;27.90;;;;;;5050304;28;20468;-71
2023/06/11 02:00:05;;;;;;;12.77;9.20;;;21.00;28.10;;;;;;5049044;28;20382;-71
2023/06/11 02:02:31;;;;;;;14.65;10.40;;;21.00;27.90;;;;;;5049877;28;20427;-70
2023/06/11 02:04:57;;;;;;;12.77;10.13;;;21.10;27.80;;;;;;5050212;28;20382;-72
2023/06/11 02:07:22;;;;;;;13.75;10.40;;;21.10;27.80;;;;;;5050064;28;20869;-70
2023/06/11 02:09:48;;;;;;;14.73;9.90;;;21.10;27.30;;;;;;5052870;28;20389;-71
2023/06/11 02:12:14;;;;;;;13.63;9.98;;;21.10;27.30;;;;;;5053274;28;20468;-72
2023/06/11 02:14:39;;;;;;;16.30;10.10;;;21.00;27.50;;;;;;5053548;28;20381;-71
2023/06/11 02:17:05;;;;;;;17.23;10.47;;;21.00;28.00;;;;;;5053655;28;20732;-71
2023/06/11 02:19:30;;;;;;;14.88;9.93;;;20.90;28.10;;;;;;5053493;28;20750;-71
2023/06/11 02:21:56;;;;;;;16.33;9.90;;;20.80;28.30;;;;;;5053192;28;20381;-71
2023/06/11 02:24:22;;;;;;;10.63;9.50;;;20.80;28.40;;;;;;5053137;28;20392;-71
2023/06/11 02:26:47;;;;;;;13.13;10.07;;;20.90;28.20;;;;;;5053172;28;20429;-71
2023/06/11 02:29:13;;;;;;;14.80;10.43;;;20.90;28.10;;;;;;5053243;28;20388;-71
2023/06/11 02:31:38;;;;;;;14.98;9.75;;;20.80;28.10;;;;;;5052849;28;20397;-69
2023/06/11 02:34:04;;;;;;;14.37;10.30;;;20.90;29.40;;;;;;5053253;28;20378;-72
2023/06/11 02:36:30;;;;;;;11.20;9.17;;;20.90;28.40;;;;;;5052856;28;20397;-71
2023/06/11 02:38:55;;;;;;;13.10;9.48;;;20.80;28.20;;;;;;5053018;28;20381;-70
2023/06/11 02:41:21;;;;;;;14.50;9.40;;;20.90;28.70;;;;;;5052570;28;20392;-70
2023/06/11 02:43:46;;;;;;;11.93;9.52;;;20.80;28.70;;;;;;5053146;28;20378;-72
2023/06/11 02:46:12;;;;;;;15.07;9.73;;;20.70;28.90;;;;;;5052984;28;20422;-71
2023/06/11 02:48:37;;;;;;;13.10;10.40;;;20.80;28.80;;;;;;5053410;28;20953;-71
2023/06/11 02:51:03;;;;;;;13.80;9.40;;;20.80;29.00;;;;;;5052796;28;20793;-69
2023/06/11 02:53:28;;;;;;;12.30;9.67;;;20.70;29.10;;;;;;5052703;28;20400;-70
2023/06/11 02:55:54;;;;;;;10.82;9.38;;;20.60;29.40;;;;;;5052941;28;20928;-71
2023/06/11 02:58:20;;;;;;;14.43;9.60;;;20.50;29.70;;;;;;5052658;28;20447;-72
2023/06/11 03:00:45;;;;;;;12.80;9.80;;;20.50;29.80;;;;;;5052483;28;20446;-72
2023/06/11 03:03:11;;;;;;;14.30;10.50;;;20.50;30.10;;;;;;5052458;28;20390;-71
2023/06/11 03:05:37;;;;;;;11.23;10.02;;;20.50;30.10;;;;;;5052672;28;20500;-71
2023/06/11 03:08:02;;;;;;;15.73;10.20;;;20.70;29.80;;;;;;5052489;28;20393;-71
2023/06/11 03:10:28;;;;;;;14.20;10.17;;;20.70;29.60;;;;;;5052219;28;20467;-73
2023/06/11 03:12:54;;;;;;;13.07;9.85;;;20.60;30.10;;;;;;5052009;28;20531;-71
2023/06/11 03:15:20;;;;;;;12.40;9.48;;;20.50;30.40;;;;;;5052529;28;20457;-72
2023/06/11 03:17:45;;;;;;;13.52;10.60;;;20.50;30.60;;;;;;5052245;28;20524;-71
2023/06/11 03:20:11;;;;;;;12.10;9.93;;;20.50;30.50;;;;;;5050740;28;20393;-74
2023/06/11 03:22:37;;;;;;;14.27;9.90;;;20.50;31.40;;;;;;5052041;28;20411;-72
2023/06/11 03:25:03;;;;;;;13.32;9.70;;;20.40;31.10;;;;;;5051916;28;20531;-73
2023/06/11 03:27:28;;;;;;;14.35;10.77;;;20.30;31.50;;;;;;5051665;28;20381;-71
2023/06/11 03:29:54;;;;;;;14.73;10.00;;;20.40;31.50;;;;;;5051895;28;20866;-70
2023/06/11 03:32:19;;;;;;;15.50;10.13;;;20.40;31.20;;;;;;5051394;28;20488;-72
2023/06/11 03:34:45;;;;;;;12.32;9.90;;;20.60;30.80;;;;;;5050382;28;20393;-72
2023/06/11 03:37:11;;;;;;;11.90;10.20;;;20.60;30.40;;;;;;5051313;28;20409;-72
2023/06/11 03:39:36;;;;;;;15.33;10.17;;;20.60;30.60;;;;;;5052054;28;21014;-72
2023/06/11 03:42:02;;;;;;;11.87;9.97;;;20.60;30.90;;;;;;5069326;23;20501;-73
2023/06/11 03:44:27;;;;;;;14.33;10.23;;;20.80;30.20;;;;;;5070310;28;20790;-74
2023/06/11 03:46:53;;;;;;;13.68;9.50;;;20.80;29.70;;;;;;5071429;28;20462;-74
2023/06/11 03:49:18;;;;;;;16.53;9.77;;;20.70;30.20;;;;;;5071423;28;20448;-73
2023/06/11 03:51:44;;;;;;;19.80;10.33;;;20.70;30.10;;;;;;5071276;28;20383;-73
2023/06/11 03:54:09;;;;;;;14.48;10.23;;;20.80;30.00;;;;;;5071616;28;20379;-73
2023/06/11 03:56:35;;;;;;;12.03;10.10;;;20.80;30.10;;;;;;5071363;28;20883;-74
2023/06/11 03:59:01;;;;;;;10.15;9.05;;;20.80;30.40;;;;;;5070198;28;20467;-74
2023/06/11 04:01:27;;;;;;;11.53;9.67;;;20.90;30.40;;;;;;5071305;28;20436;-73
2023/06/11 04:03:52;;;;;;;15.75;10.30;;;20.80;30.40;;;;;;5071329;28;20388;-73
2023/06/11 04:06:18;;;;;;;12.00;10.00;;;20.90;30.20;;;;;;5071314;28;20409;-74
2023/06/11 04:08:44;;;;;;;11.85;9.57;;;21.00;29.60;;;;;;5071126;28;20388;-74
2023/06/11 04:11:10;;;;;;;12.48;10.35;;;21.20;29.00;;;;;;5071009;28;20391;-75
2023/06/11 04:13:35;;;;;;;14.93;10.43;;;21.30;28.70;;;;;;5070105;28;20402;-73
2023/06/11 04:16:01;;;;;;;15.07;9.70;;;21.30;28.60;;;;;;5069670;28;20756;-72
2023/06/11 04:18:27;;;;;;;15.25;10.30;;;21.30;29.00;;;;;;5070581;28;20399;-73
2023/06/11 04:20:52;;;;;;;10.80;9.10;;;21.30;28.90;;;;;;5070657;28;20717;-74
2023/06/11 04:23:18;;;;;;;12.10;9.60;;;21.40;28.60;;;;;;5070665;28;20415;-72
2023/06/11 04:25:44;;;;;;;13.10;9.95;;;21.50;28.10;;;;;;5070987;28;20391;-73
2023/06/11 04:28:10;;;;;;;12.15;9.15;;;21.60;28.10;;;;;;5069388;28;20383;-74
2023/06/11 04:30:36;;;;;;;14.13;9.77;;;21.70;27.90;;;;;;5070798;28;20376;-72
2023/06/11 04:33:04;;;;;;;12.27;9.80;;;21.70;28.10;;;;;;5069998;28;20431;-74
2023/06/11 04:35:33;;;;;;;18.73;10.93;;;21.70;27.80;;;;;;5070569;28;20740;-73
2023/06/11 04:37:58;;;;;;;12.75;9.63;;;21.70;27.80;;;;;;5071078;28;20422;-73
2023/06/11 04:40:24;;;;;;;12.00;10.10;;;21.80;27.60;;;;;;5070469;28;20415;-73
2023/06/11 04:42:49;;;;;;;12.63;9.93;;;21.70;27.90;;;;;;5070137;28;20402;-73
2023/06/11 04:45:18;;;;;;;14.80;9.77;;;21.70;28.30;;;;;;5070700;28;20379;-73
2023/06/11 04:47:47;;;;;;;14.27;9.18;;;21.70;28.10;;;;;;5070764;28;20791;-72
2023/06/11 04:50:20;;;;;;;12.07;9.30;;;21.80;27.90;;;;;;5070929;28;20387;-73
2023/06/11 04:52:48;;;;;;;12.27;9.52;;;21.90;27.90;;;;;;5070425;28;20376;-74
2023/06/11 04:55:14;;;;;;;12.20;9.40;;;22.00;27.60;;;;;;5070670;28;20927;-74
2023/06/11 04:57:40;;;;;;;11.80;9.77;;;22.10;27.30;;;;;;5070625;28;20436;-74
2023/06/11 05:00:10;;;;;;;12.30;9.50;;;22.10;27.10;;;;;;5070752;28;20463;-73
2023/06/11 05:02:44;;;;;;;11.77;9.50;;;22.20;27.00;;;;;;5071052;28;20388;-73
2023/06/11 05:05:10;;;;;;;14.77;9.60;;;22.40;26.20;;;;;;5072191;28;20367;-74
2023/06/11 05:07:36;;;;;;;14.10;9.25;;;22.40;25.70;;;;;;5079454;28;20410;-73
2023/06/11 05:10:01;;;;;;;10.40;9.30;;;22.40;25.90;;;;;;5090253;28;20411;-73
2023/06/11 05:12:27;;;;;;;13.40;9.70;;;22.50;26.00;;;;;;5078321;28;20462;-73
2023/06/11 05:14:52;;;;;;;13.40;9.00;;;22.50;25.60;;;;;;5070449;28;20380;-72
2023/06/11 05:17:18;;;;;;;10.37;9.10;;;22.50;26.00;;;;;;5070224;28;20391;-73
2023/06/11 05:19:43;;;;;;;13.40;9.40;;;22.50;25.50;;;;;;5070424;28;20380;-74
2023/06/11 05:22:09;;;;;;;13.07;9.67;;;22.60;25.90;;;;;;5070093;28;20417;-73
2023/06/11 05:24:35;;;;;;;12.30;9.27;;;22.60;25.60;;;;;;5070541;28;20397;-74
2023/06/11 05:27:01;;;;;;;13.93;9.55;;;22.70;25.40;;;;;;5070522;28;20472;-73
2023/06/11 05:29:27;;;;;;;12.23;9.23;;;22.90;25.00;;;;;;5069169;28;20392;-73
2023/06/11 05:31:52;;;;;;;10.75;9.20;;;22.80;24.50;;;;;;5078967;28;20424;-73
2023/06/11 05:34:18;;;;;;;11.23;9.40;;;22.80;24.80;;;;;;5079731;28;20379;-72
2023/06/11 05:36:48;;;;;;;12.00;9.25;;;22.90;25.10;;;;;;5081334;28;20557;-73
2023/06/11 05:39:13;;;;;;;11.60;9.80;;;22.90;25.20;;;;;;5083245;28;20460;-73
2023/06/11 05:41:39;;;;;;;11.13;9.50;;;23.00;25.10;;;;;;5085216;28;20488;-73
2023/06/11 05:44:05;;;;;;;13.02;9.27;;;23.10;24.40;;;;;;5088211;28;20376;-73
2023/06/11 05:46:31;;;;;;;11.73;8.93;;;23.20;24.00;;;;;;5088619;28;20390;-73
2023/06/11 05:48:59;;;;;;;13.93;9.35;;;23.30;23.50;;;;;;5085134;28;20423;-74
2023/06/11 05:51:25;;;;;;;12.20;9.00;;;23.30;23.30;;;;;;5080817;28;20383;-73
2023/06/11 05:53:50;;;;;;;11.60;9.52;;;23.50;22.70;;;;;;5084061;28;20470;-74
2023/06/11 05:56:16;;;;;;;13.57;9.80;;;23.70;22.10;;;;;;5076812;28;20866;-74
2023/06/11 05:58:41;;;;;;;11.85;8.80;;;23.70;22.20;;;;;;5081912;28;20721;-73
2023/06/11 06:01:08;;;;;;;11.67;9.20;;;23.60;22.20;;;;;;5081950;28;20459;-73
2023/06/11 06:03:35;;;;;;;10.65;9.18;;;23.70;21.60;;;;;;5081914;28;20383;-73
2023/06/11 06:06:01;;;;;;;11.85;9.48;;;23.70;21.70;;;;;;5073870;28;20471;-73
2023/06/11 06:08:28;;;;;;;11.10;9.15;;;23.80;21.40;;;;;;5072071;28;20395;-73
2023/06/11 06:10:55;;;;;;;11.95;9.60;;;23.90;21.50;;;;;;5073255;28;20413;-73
2023/06/11 06:13:22;;;;;;;10.07;8.88;;;24.00;21.20;;;;;;5071171;28;20415;-73
2023/06/11 06:15:48;;;;;;;12.40;9.50;;;24.00;21.40;;;;;;5055570;28;20404;-73
2023/06/11 06:18:15;;;;;;;13.60;9.30;;;24.20;21.00;;;;;;5054736;28;20405;-74
2023/06/11 06:20:41;;;;;;;10.88;9.68;;;24.20;20.70;;;;;;5053234;28;20508;-73
2023/06/11 06:23:07;;;;;;;11.57;8.27;;;24.20;20.90;;;;;;5052848;28;20385;-73
2023/06/11 06:25:36;;;;;;;12.43;8.82;;;24.30;20.00;;;;;;5058822;28;20436;-73
2023/06/11 06:28:02;;;;;;;13.40;8.93;;;24.40;19.60;;;;;;5061680;28;20750;-73
2023/06/11 06:30:27;;;;;;;12.63;9.20;;;24.40;19.70;;;;;;5072690;28;20387;-74
2023/06/11 06:32:53;;;;;;;9.87;8.83;;;24.50;19.30;;;;;;5052534;28;20387;-74
2023/06/11 06:35:18;;;;;;;11.30;8.73;;;24.50;18.70;;;;;;5052862;28;20416;-74
2023/06/11 06:37:45;;;;;;;11.90;9.50;;;24.50;18.50;;;;;;5052929;28;20722;-73
2023/06/11 06:40:12;;;;;;;10.85;8.77;;;24.50;18.80;;;;;;5053216;28;20890;-74
2023/06/11 06:42:38;;;;;;;11.95;8.70;;;24.60;19.00;;;;;;5052219;28;20386;-74
2023/06/11 06:45:04;;;;;;;9.30;8.18;;;24.70;18.40;;;;;;5053117;28;20427;-74
2023/06/11 06:47:29;;;;;;;11.60;8.10;;;24.70;18.30;;;;;;5052712;28;20885;-73
2023/06/11 06:49:55;;;;;;;13.75;7.90;;;24.80;17.60;;;;;;5053623;28;20389;-73
2023/06/11 06:52:20;;;;;;;11.20;8.50;;;24.80;17.40;;;;;;5052069;28;20386;-74
2023/06/11 06:54:47;;;;;;;13.00;9.30;;;24.80;17.70;;;;;;5052294;28;20742;-75
2023/06/11 06:57:13;;;;;;;10.80;8.20;;;24.90;17.90;;;;;;5053051;28;20927;-73
2023/06/11 06:59:39;;;;;;;10.17;8.40;;;24.90;17.70;;;;;;5052431;28;20377;-74
2023/06/11 07:02:05;;;;;;;10.90;8.37;;;24.90;17.80;;;;;;5052090;28;20428;-76
2023/06/11 07:04:31;;;;;;;11.25;8.35;;;25.00;17.40;;;;;;5052492;28;20457;-75
2023/06/11 07:06:56;;;;;;;9.83;8.53;;;25.00;17.50;;;;;;5053214;28;20879;-74
2023/06/11 07:09:22;;;;;;;12.45;8.50;;;25.10;17.30;;;;;;5052659;28;20389;-74
2023/06/11 07:11:48;;;;;;;9.23;8.00;;;25.20;17.20;;;;;;5050869;28;20393;-73
2023/06/11 07:14:14;;;;;;;11.80;8.05;;;25.30;17.20;;;;;;5052109;28;20900;-74
2023/06/11 07:16:40;;;;;;;10.88;8.82;;;25.30;16.30;;;;;;5052583;28;20444;-72
2023/06/11 07:19:05;;;;;;;13.43;8.52;;;25.30;16.40;;;;;;5052655;28;20389;-74
2023/06/11 07:21:31;;;;;;;10.50;8.43;;;25.30;16.60;;;;;;5072085;28;20491;-72
2023/06/11 07:23:58;;;;;;;9.30;7.90;;;25.40;15.90;;;;;;5072578;28;20376;-73
2023/06/11 07:26:25;;;;;;;9.93;7.63;;;25.40;16.20;;;;;;5072232;28;20747;-73
2023/06/11 07:28:51;;;;;;;14.30;8.68;;;25.50;15.70;;;;;;5073017;28;20384;-73
2023/06/11 07:31:16;;;;;;;10.07;8.30;;;25.60;16.00;;;;;;5072782;28;20437;-72
2023/06/11 07:33:44;;;;;;;9.40;8.10;;;25.60;15.70;;;;;;5071723;28;20394;-73
2023/06/11 07:36:09;;;;;;;11.07;7.80;;;25.60;16.00;;;;;;5073826;28;20745;-73
2023/06/11 07:38:35;;;;;;;9.00;7.93;;;25.60;16.10;;;;;;5071267;28;20405;-73
2023/06/11 07:41:01;;;;;;;9.43;8.00;;;25.70;15.30;;;;;;5089829;28;20375;-73
2023/06/11 07:43:27;;;;;;;11.32;7.82;;;25.80;15.40;;;;;;5068527;28;20399;-73
2023/06/11 07:45:52;;;;;;;10.37;8.17;;;25.90;15.00;;;;;;5071829;28;20860;-71
2023/06/11 07:48:18;;;;;;;12.23;7.80;;;26.00;15.20;;;;;;5071623;28;20405;-72
2023/06/11 07:50:44;;;;;;;7.87;7.07;;;25.90;14.80;;;;;;5079596;28;20415;-73
2023/06/11 07:53:12;;;;;;;10.20;7.90;;;25.90;14.90;;;;;;5079597;28;20382;-73
2023/06/11 07:55:38;;;;;;;10.85;7.95;;;26.00;14.90;;;;;;5078583;28;20408;-73
2023/06/11 07:58:03;;;;;;;10.77;7.73;;;26.00;15.30;;;;;;5080241;28;20433;-73
2023/06/11 08:00:29;;;;;;;9.07;7.90;;;26.10;14.90;;;;;;5070942;28;20391;-73
2023/06/11 08:02:55;;;;;;;10.10;8.03;;;26.10;15.00;;;;;;5070342;28;20423;-71
2023/06/11 08:05:21;;;;;;;16.98;8.50;;;26.10;14.90;;;;;;5071263;28;20379;-74
2023/06/11 08:07:48;;;;;;;10.27;7.20;;;26.10;15.00;;;;;;5070769;28;20787;-71
2023/06/11 08:10:14;;;;;;;10.82;8.32;;;26.20;15.00;;;;;;5071232;28;20437;-73
2023/06/11 08:12:40;;;;;;;10.60;8.50;;;26.30;14.70;;;;;;5070906;28;20868;-73
2023/06/11 08:15:07;;;;;;;9.93;7.72;;;26.30;14.70;;;;;;5072366;28;20407;-74
2023/06/11 08:17:32;;;;;;;8.70;7.65;;;26.30;14.60;;;;;;5071066;28;20430;-72
2023/06/11 08:19:59;;;;;;;10.25;8.15;;;26.30;14.60;;;;;;5071107;28;20379;-73
2023/06/11 08:22:25;;;;;;;10.10;7.87;;;26.40;15.30;;;;;;5070963;28;20372;-73
2023/06/11 08:24:50;;;;;;;10.57;8.32;;;26.50;14.20;;;;;;5054960;28;20393;-73
2023/06/11 08:27:16;;;;;;;9.43;8.40;;;26.50;14.10;;;;;;5064755;28;20496;-75
2023/06/11 08:29:42;;;;;;;9.38;8.05;;;26.50;14.00;;;;;;5062467;28;20876;-73
2023/06/11 08:32:07;;;;;;;12.67;8.83;;;26.60;14.20;;;;;;5070667;28;20380;-72
2023/06/11 08:34:33;;;;;;;10.57;8.55;;;26.60;14.00;;;;;;5072419;28;20497;-73
2023/06/11 08:37:00;;;;;;;12.00;7.67;;;26.70;13.80;;;;;;5073339;28;20776;-72
2023/06/11 08:39:26;;;;;;;11.07;8.25;;;26.80;13.70;;;;;;5057485;28;20409;-72
2023/06/11 08:41:52;;;;;;;11.00;7.65;;;26.80;14.10;;;;;;5069639;28;20399;-74
2023/06/11 08:44:17;;;;;;;11.50;7.60;;;26.90;13.00;;;;;;5060257;28;20413;-73
2023/06/11 08:46:44;;;;;;;9.00;7.28;;;27.00;13.60;;;;;;5057392;28;20479;-73
2023/06/11 08:49:21;;;;;;;10.88;6.75;;;27.10;13.10;;;;;;5070883;28;20795;-74
2023/06/11 08:51:48;;;;;;;9.98;6.88;;;27.00;12.60;;;;;;5070723;28;20380;-72
2023/06/11 08:54:13;;;;;;;10.38;7.60;;;27.10;12.40;;;;;;5070906;28;20379;-75
2023/06/11 08:56:39;;;;;;;10.02;7.80;;;27.20;12.60;;;;;;5058834;28;20978;-76
2023/06/11 08:59:06;;;;;;;9.32;7.45;;;27.20;12.70;;;;;;5050583;28;20378;-72
2023/06/11 09:01:32;;;;;;;9.48;7.13;;;27.30;12.10;;;;;;5050496;28;20413;-72
2023/06/11 09:03:58;;;;;;;8.32;7.22;;;27.30;12.20;;;;;;5051186;28;20678;-73
2023/06/11 09:06:24;;;;;;;8.70;7.80;;;27.30;12.20;;;;;;5065982;28;20916;-73
2023/06/11 09:09:05;;;;;;;8.67;7.60;;;27.40;12.40;;;;;;5051663;28;20389;-71
2023/06/11 09:11:31;;;;;;;12.07;8.30;;;27.50;11.80;;;;;;5069751;28;20393;-70
2023/06/11 09:13:57;;;;;;;8.50;7.28;;;27.50;12.00;;;;;;5068099;28;20381;-71
2023/06/11 09:16:22;;;;;;;9.13;6.50;;;27.50;11.80;;;;;;5065520;28;20405;-72
2023/06/11 09:18:48;;;;;;;7.93;6.80;;;27.60;11.50;;;;;;5054532;28;20387;-73
2023/06/11 09:21:13;;;;;;;8.85;6.60;;;27.60;11.40;;;;;;5054971;28;20389;-72
2023/06/11 09:23:39;;;;;;;8.93;6.87;;;27.60;10.70;;;;;;5054797;28;20789;-72
2023/06/11 09:26:05;;;;;;;8.68;6.70;;;27.70;11.00;;;;;;5054746;28;20381;-72
2023/06/11 09:28:32;;;;;;;8.43;6.90;;;27.80;10.60;;;;;;5054639;28;20381;-71
2023/06/11 09:30:59;;;;;;;8.97;7.00;;;27.80;10.30;;;;;;5055230;28;20886;-74
2023/06/11 09:33:25;;;;;;;10.18;7.50;;;27.80;10.50;;;;;;5055042;28;20392;-73
2023/06/11 09:35:51;;;;;;;9.17;8.07;;;27.80;11.10;;;;;;5055603;28;20909;-72
2023/06/11 09:38:19;;;;;;;9.68;7.65;;;27.90;10.70;;;;;;5056092;28;20389;-72
2023/06/11 09:40:50;;;;;;;7.40;6.60;;;28.00;10.40;;;;;;5055481;28;20397;-73
2023/06/11 09:43:21;;;;;;;10.05;7.28;;;28.00;10.40;;;;;;5065359;23;20432;-69
2023/06/11 09:45:52;;;;;;;8.93;7.93;;;28.00;10.30;;;;;;5054431;28;20385;-69
2023/06/11 09:48:21;;;;;;;10.48;6.90;;;28.00;10.60;;;;;;5054253;28;20935;-71
2023/06/11 09:50:51;;;;;;;11.40;7.00;;;28.20;10.70;;;;;;5054160;28;20385;-71
2023/06/11 09:53:21;;;;;;;8.32;6.78;;;28.30;9.10;;;;;;5053974;28;20384;-71
2023/06/11 09:55:51;;;;;;;9.00;6.80;;;28.40;9.20;;;;;;5053892;28;20440;-71
2023/06/11 09:58:22;;;;;;;10.77;6.63;;;28.20;9.40;;;;;;5053859;28;20472;-72
2023/06/11 10:00:50;;;;;;;8.55;6.78;;;28.20;9.70;;;;;;5053995;28;20376;-71
2023/06/11 10:03:16;;;;;;;9.10;7.30;;;28.20;9.60;;;;;;5053253;28;20548;-71
2023/06/11 10:05:41;;;;;;;10.48;6.68;;;28.30;9.40;;;;;;5053816;28;21027;-71
2023/06/11 10:08:18;;;;;;;9.30;6.67;;;28.50;8.50;;;;;;5052261;28;20393;-69
2023/06/11 10:10:51;;;;;;;9.70;7.10;;;28.50;8.60;;;;;;5053558;28;20865;-70
2023/06/11 10:13:33;;;;;;;7.47;6.67;;;28.70;8.10;;;;;;5053194;28;20856;-70
2023/06/11 10:16:00;;;;;;;13.13;6.65;;;28.70;7.10;;;;;;5053380;28;20440;-71
2023/06/11 10:18:27;;;;;;;15.90;7.10;;;28.70;7.30;;;;;;5053182;28;20386;-70
2023/06/11 10:20:54;;;;;;;8.57;7.60;;;28.80;7.30;;;;;;5053247;28;20919;-70
2023/06/11 10:23:20;;;;;;;11.15;6.85;;;28.80;7.10;;;;;;5053656;28;20397;-71
2023/06/11 10:25:57;;;;;;;7.90;7.10;;;28.80;7.20;;;;;;5053259;28;20397;-73
2023/06/11 10:28:36;;;;;;;8.88;7.47;;;28.80;7.70;;;;;;5053028;28;20409;-70
2023/06/11 10:31:02;;;;;;;8.75;7.82;;;28.90;7.80;;;;;;5052337;28;20385;-71
2023/06/11 10:33:42;;;;;;;11.65;7.97;;;28.90;7.60;;;;;;5053006;28;20853;-69
2023/06/11 10:36:08;;;;;;;11.02;7.00;;;29.10;7.00;;;;;;5052929;28;20401;-71
2023/06/11 10:38:40;;;;;;;8.50;7.00;;;29.10;6.00;;;;;;5052947;28;20392;-70
2023/06/11 10:41:05;;;;;;;9.43;7.22;;;29.00;6.60;;;;;;5052761;28;20483;-71
2023/06/11 10:43:34;;;;;;;8.80;6.37;;;29.20;6.10;;;;;;5052762;28;20489;-70
2023/06/11 10:46:11;;;;;;;12.05;6.68;;;29.30;6.10;;;;;;5052863;28;20481;-70
2023/06/11 10:48:48;;;;;;;8.15;6.40;;;29.40;6.20;;;;;;5052879;28;20384;-70
2023/06/11 10:51:14;;;;;;;10.80;6.20;;;29.30;5.20;;;;;;5053401;28;20806;-71
2023/06/11 10:53:40;;;;;;;9.52;7.40;;;29.30;5.40;;;;;;5053418;28;20741;-71
2023/06/11 10:56:12;;;;;;;9.13;7.30;;;29.40;5.60;;;;;;5053926;28;20410;-71
2023/06/11 10:58:38;;;;;;;11.65;6.80;;;29.50;4.10;;;;;;5053832;28;20784;-69
2023/06/11 11:01:07;;;;;;;10.70;6.72;;;29.50;2.60;;;;;;5052422;28;20381;-70
2023/06/11 11:03:34;;;;;;;15.32;7.00;;;29.50;3.40;;;;;;5052405;28;20408;-70
2023/06/11 11:06:00;;;;;;;8.27;6.90;;;29.50;4.00;;;;;;5052617;28;20464;-70
2023/06/11 11:08:26;;;;;;;11.57;8.43;;;29.60;3.00;;;;;;5052602;28;21080;-71
2023/06/11 11:10:57;;;;;;;10.50;7.55;;;29.70;3.20;;;;;;5052419;28;20392;-72
2023/06/11 11:13:23;;;;;;;10.05;7.40;;;29.70;2.60;;;;;;5046517;28;20446;-72
2023/06/11 11:15:51;;;;;;;10.68;6.80;;;29.80;2.90;;;;;;5044855;28;20416;-72
2023/06/11 11:18:17;;;;;;;15.98;6.90;;;29.90;1.90;;;;;;5044296;28;20390;-71
2023/06/11 11:20:46;;;;;;;10.07;6.70;;;29.90;1.40;;;;;;5035217;28;20387;-69
2023/06/11 11:23:12;;;;;;;7.50;6.75;;;29.90;2.00;;;;;;5051548;28;20385;-70
2023/06/11 11:25:40;;;;;;;10.40;7.40;;;30.00;2.20;;;;;;5052547;28;21000;-72
2023/06/11 11:28:05;;;;;;;12.52;6.93;;;30.10;1.40;;;;;;5052498;28;20478;-72
2023/06/11 11:30:31;;;;;;;8.75;6.75;;;30.10;1.00;;;;;;5043038;28;20466;-71
2023/06/11 11:32:58;;;;;;;12.13;6.60;;;30.30;1.00;;;;;;5031906;28;20420;-72
2023/06/11 11:35:26;;;;;;;9.43;7.07;;;30.30;1.00;;;;;;5032656;28;20790;-72
2023/06/11 11:37:52;;;;;;;12.85;7.10;;;30.30;1.00;;;;;;5033008;28;20799;-70
2023/06/11 11:40:19;;;;;;;9.73;6.22;;;30.30;1.00;;;;;;5034037;28;20380;-71
2023/06/11 11:42:48;;;;;;;14.55;7.40;;;30.40;1.00;;;;;;5052635;28;20394;-71
2023/06/11 11:45:15;;;;;;;7.90;6.90;;;30.40;1.00;;;;;;5057951;28;20445;-70
2023/06/11 11:47:43;;;;;;;14.05;6.95;;;30.40;1.00;;;;;;5059957;28;20395;-71
2023/06/11 11:50:22;;;;;;;10.38;6.82;;;30.40;1.00;;;;;;5050662;28;20387;-70
2023/06/11 11:53:02;;;;;;;12.07;7.30;;;30.60;1.30;;;;;;5054710;28;20476;-71
2023/06/11 11:55:29;;;;;;;13.15;7.70;;;30.80;1.00;;;;;;5032966;28;20383;-71
2023/06/11 11:58:21;;;;;;;11.98;7.80;;;30.90;1.00;;;;;;5031478;28;20437;-72
2023/06/11 12:00:51;;;;;;;12.95;7.97;;;30.70;1.00;;;;;;5044935;28;20436;-71
2023/06/11 12:03:19;;;;;;;13.32;7.60;;;30.80;1.00;;;;;;5051595;28;20381;-71
2023/06/11 12:06:02;;;;;;;13.05;7.82;;;30.90;1.00;;;;;;5051501;28;20447;-71
2023/06/11 12:08:30;;;;;;;12.53;7.70;;;30.90;1.00;;;;;;5051652;28;20413;-70
2023/06/11 12:10:56;;;;;;;8.55;7.22;;;31.00;1.00;;;;;;5051383;28;20378;-70
2023/06/11 12:13:22;;;;;;;9.75;7.57;;;31.00;1.00;;;;;;5051009;28;20377;-71
2023/06/11 12:15:48;;;;;;;10.30;6.93;;;31.10;1.00;;;;;;5047708;28;20880;-69
2023/06/11 12:18:13;;;;;;;12.07;7.78;;;31.20;1.00;;;;;;5050604;28;20820;-72
2023/06/11 12:20:39;;;;;;;8.77;7.87;;;31.40;1.00;;;;;;5059613;28;20390;-70
2023/06/11 12:23:05;;;;;;;11.43;8.98;;;31.40;1.00;;;;;;5048972;28;20398;-71
2023/06/11 12:25:31;;;;;;;12.30;8.70;;;31.30;1.00;;;;;;5050282;28;20784;-72
2023/06/11 12:27:58;;;;;;;8.55;7.38;;;31.50;1.00;;;;;;5049748;28;20397;-72
2023/06/11 12:30:24;;;;;;;11.63;8.10;;;31.60;1.00;;;;;;5051228;28;20381;-71
2023/06/11 12:36:12;;;;;;;9.95;7.80;;;31.80;1.00;;;;;;5055738;28;20460;-71
2023/06/11 12:38:38;;;;;;;10.40;8.60;;;32.00;1.00;;;;;;5047494;28;20402;-71
2023/06/11 12:41:03;;;;;;;10.63;8.48;;;32.10;1.00;;;;;;5035117;28;20414;-70